Time;durP1;ratioP1;P1;durP2;ratioP2;P2;SDS_P1;SDS_P2;PMS_P1;PMS_P2;Temp;Humidity;BMP_temperature;BMP_pressure;BME280_temperature;BME280_humidity;BME280_pressure;Samples;Min_cycle;Max_cycle;Signal;HPM_P1;HPM_P2
2024/04/05 00:01:03;;;;;;;3.30;1.40;;;;;;;;;;6104841;23;20190;-84
2024/04/05 00:04:08;;;;;;;4.20;1.40;;;;;;;;;;6076205;23;20159;-83
2024/04/05 00:07:12;;;;;;;1.60;1.20;;;;;;;;;;6095578;23;20163;-84
2024/04/05 00:10:16;;;;;;;3.70;1.27;;;;;;;;;;6110524;23;20645;-83
2024/04/05 00:13:21;;;;;;;1.70;1.37;;;;;;;;;;6111626;23;20162;-84
2024/04/05 00:16:26;;;;;;;2.03;1.20;;;;;;;;;;6110203;23;20155;-84
2024/04/05 00:19:30;;;;;;;4.27;1.50;;;;;;;;;;6126497;23;20163;-85
2024/04/05 00:22:35;;;;;;;3.03;1.30;;;;;;;;;;6093138;23;20151;-84
2024/04/05 00:25:43;;;;;;;2.70;1.40;;;;;;;;;;6110474;23;20151;-84
2024/04/05 00:28:47;;;;;;;2.53;1.30;;;;;;;;;;6111166;23;20155;-84
2024/04/05 00:31:51;;;;;;;4.23;1.70;;;;;;;;;;6127662;23;20187;-84
2024/04/05 00:34:56;;;;;;;4.10;1.50;;;;;;;;;;6127181;23;20159;-84
2024/04/05 00:38:00;;;;;;;3.03;1.30;;;;;;;;;;6093233;23;20158;-85
2024/04/05 00:41:04;;;;;;;2.43;1.40;;;;;;;;;;6120470;23;20190;-84
2024/04/05 00:44:08;;;;;;;2.40;1.40;;;;;;;;;;6127310;23;20163;-85
2024/04/05 00:47:12;;;;;;;5.07;2.07;;;;;;;;;;6093357;23;20159;-83
2024/04/05 00:50:16;;;;;;;3.20;1.37;;;;;;;;;;6106777;23;20190;-83
2024/04/05 00:53:24;;;;;;;5.37;1.50;;;;;;;;;;6109793;23;20480;-84
2024/04/05 00:56:31;;;;;;;4.10;1.30;;;;;;;;;;6111496;23;20155;-84
2024/04/05 00:59:35;;;;;;;4.00;1.70;;;;;;;;;;6139818;23;20172;-84
2024/04/05 01:02:39;;;;;;;2.00;1.40;;;;;;;;;;6105400;23;20154;-84
2024/04/05 01:05:46;;;;;;;2.50;1.53;;;;;;;;;;6121822;23;20155;-84
2024/04/05 01:08:51;;;;;;;3.33;1.57;;;;;;;;;;6105997;23;20155;-85
2024/04/05 01:11:56;;;;;;;4.50;1.77;;;;;;;;;;6121767;23;20186;-84
2024/04/05 01:15:01;;;;;;;4.20;1.43;;;;;;;;;;6121402;23;20158;-85
2024/04/05 01:18:07;;;;;;;3.87;1.50;;;;;;;;;;6104503;23;20150;-83
2024/04/05 01:21:12;;;;;;;4.17;1.57;;;;;;;;;;6131223;23;20189;-85
2024/04/05 01:24:16;;;;;;;4.30;1.53;;;;;;;;;;6137809;23;20154;-84
2024/04/05 01:27:20;;;;;;;4.27;1.83;;;;;;;;;;6121147;23;20593;-84
2024/04/05 01:30:24;;;;;;;4.73;1.43;;;;;;;;;;6099939;23;20189;-84
2024/04/05 01:33:28;;;;;;;3.57;1.80;;;;;;;;;;6138864;23;20154;-83
2024/04/05 01:36:32;;;;;;;4.40;1.60;;;;;;;;;;6120532;23;20463;-84
2024/04/05 01:39:37;;;;;;;4.30;1.67;;;;;;;;;;6103412;23;20597;-83
2024/04/05 01:42:41;;;;;;;2.97;1.70;;;;;;;;;;6120503;23;20162;-84
2024/04/05 01:45:45;;;;;;;3.33;1.43;;;;;;;;;;6121571;23;20159;-85
2024/04/05 01:48:49;;;;;;;6.80;1.50;;;;;;;;;;6121151;23;20159;-83
2024/04/05 01:51:54;;;;;;;3.30;1.77;;;;;;;;;;6120854;23;20186;-83
2024/04/05 01:54:59;;;;;;;5.20;1.80;;;;;;;;;;6104040;23;20159;-83
2024/04/05 01:58:03;;;;;;;2.83;1.50;;;;;;;;;;6101945;23;20498;-83
2024/04/05 02:01:07;;;;;;;3.17;1.53;;;;;;;;;;6101172;23;20649;-83
2024/04/05 02:04:14;;;;;;;2.70;1.17;;;;;;;;;;6110025;23;20159;-83
2024/04/05 02:07:21;;;;;;;2.77;1.33;;;;;;;;;;6109256;23;20159;-84
2024/04/05 02:10:25;;;;;;;4.47;1.57;;;;;;;;;;6107151;23;20198;-85
2024/04/05 02:13:30;;;;;;;4.07;1.60;;;;;;;;;;6110966;23;20162;-85
2024/04/05 02:16:34;;;;;;;4.90;1.83;;;;;;;;;;6127082;23;20159;-85
2024/04/05 02:19:38;;;;;;;4.37;1.50;;;;;;;;;;6110658;23;20163;-83
2024/04/05 02:22:42;;;;;;;2.93;1.73;;;;;;;;;;6113147;23;20151;-83
2024/04/05 02:25:47;;;;;;;3.37;1.30;;;;;;;;;;6096372;23;20154;-83
2024/04/05 02:28:51;;;;;;;3.67;1.60;;;;;;;;;;6096071;23;20254;-85
2024/04/05 02:31:55;;;;;;;3.13;1.50;;;;;;;;;;6113844;23;20179;-83
2024/04/05 02:34:59;;;;;;;3.30;1.50;;;;;;;;;;6113506;23;20159;-83
2024/04/05 02:38:04;;;;;;;4.53;1.90;;;;;;;;;;6113685;23;20154;-83
2024/04/05 02:41:08;;;;;;;3.40;1.50;;;;;;;;;;6105884;23;20190;-83
2024/04/05 02:44:13;;;;;;;1.97;1.40;;;;;;;;;;6114106;23;20158;-85
2024/04/05 02:47:18;;;;;;;3.90;1.20;;;;;;;;;;6119096;23;20159;-85
2024/04/05 04:39:25;;;;;;;6.20;1.93;;;;;;;;;;6120892;23;20134;-87
2024/04/05 04:42:29;;;;;;;3.93;1.90;;;;;;;;;;6153312;23;20158;-86
2024/04/05 04:45:33;;;;;;;5.57;2.03;;;;;;;;;;6153097;23;20184;-87
2024/04/05 04:48:38;;;;;;;3.77;1.90;;;;;;;;;;6153055;23;20465;-87
2024/04/05 04:51:42;;;;;;;3.47;1.77;;;;;;;;;;6124580;23;20178;-87
2024/04/05 04:54:47;;;;;;;4.60;2.20;;;;;;;;;;6108740;23;20154;-88
2024/04/05 04:57:51;;;;;;;4.37;2.03;;;;;;;;;;6143645;23;20596;-87
2024/04/05 05:00:56;;;;;;;5.10;2.10;;;;;;;;;;6135232;23;20194;-86
2024/04/05 05:04:00;;;;;;;3.83;2.10;;;;;;;;;;6123801;23;20159;-87
2024/04/05 05:07:08;;;;;;;6.20;2.03;;;;;;;;;;6094923;23;20150;-86
2024/04/05 05:10:14;;;;;;;4.43;2.30;;;;;;;;;;6087846;23;20193;-86
2024/04/05 05:13:18;;;;;;;4.60;1.97;;;;;;;;;;6141711;23;20177;-86
2024/04/05 05:16:23;;;;;;;4.70;2.20;;;;;;;;;;6143786;23;20153;-87
2024/04/05 05:19:28;;;;;;;5.33;2.10;;;;;;;;;;6122966;23;20190;-86
2024/04/05 05:22:32;;;;;;;4.90;2.33;;;;;;;;;;6126178;23;20593;-86
2024/04/05 05:25:37;;;;;;;4.00;2.20;;;;;;;;;;6142074;23;20159;-86
2024/04/05 05:28:41;;;;;;;3.70;2.00;;;;;;;;;;6108671;23;20150;-86
2024/04/05 05:31:45;;;;;;;3.90;2.00;;;;;;;;;;6107879;23;20482;-87
2024/04/05 05:35:09;;;;;;;2.70;1.70;;;;;;;;;;6122985;23;20459;-88
2024/04/05 05:38:14;;;;;;;3.87;1.90;;;;;;;;;;6106357;23;20159;-86
2024/04/05 05:41:22;;;;;;;5.53;1.90;;;;;;;;;;6108037;23;20198;-87
2024/04/05 05:44:27;;;;;;;3.67;1.90;;;;;;;;;;6094935;23;20468;-85
2024/04/05 05:47:31;;;;;;;6.07;2.00;;;;;;;;;;6110634;23;20606;-85
2024/04/05 05:51:25;;;;;;;4.53;1.80;;;;;;;;;;6089635;23;20194;-86
2024/04/05 05:55:30;;;;;;;4.33;2.00;;;;;;;;;;6082563;23;20175;-86
2024/04/05 05:59:40;;;;;;;5.67;2.00;;;;;;;;;;6100956;23;20267;-86
2024/04/05 06:03:12;;;;;;;4.03;1.50;;;;;;;;;;6062856;23;20170;-87
2024/04/05 06:07:53;;;;;;;5.47;1.77;;;;;;;;;;6013144;23;20180;-86
2024/04/05 06:17:54;;;;;;;5.40;1.80;;;;;;;;;;5868742;24;20189;-87
2024/04/05 06:27:22;;;;;;;2.43;1.60;;;;;;;;;;5987997;23;20514;-87
2024/04/05 06:30:49;;;;;;;4.40;1.50;;;;;;;;;;5985132;23;20197;-87
2024/04/05 06:34:18;;;;;;;4.97;1.90;;;;;;;;;;5966129;24;20162;-87
2024/04/05 06:39:41;;;;;;;3.17;1.43;;;;;;;;;;6110180;23;20188;-86
2024/04/05 06:53:16;;;;;;;3.47;1.53;;;;;;;;;;6090851;23;20503;-85
2024/04/05 06:57:50;;;;;;;4.90;1.43;;;;;;;;;;6109442;23;20163;-85
2024/04/05 07:07:09;;;;;;;4.53;1.37;;;;;;;;;;6109144;23;20167;-86
2024/04/05 07:10:52;;;;;;;2.07;1.10;;;;;;;;;;6068977;23;20195;-85
2024/04/05 07:19:23;;;;;;;3.00;1.20;;;;;;;;;;6109233;23;20155;-86
2024/04/05 07:22:28;;;;;;;3.50;1.20;;;;;;;;;;6091467;23;20595;-86
2024/04/05 07:25:56;;;;;;;5.60;1.40;;;;;;;;;;6075170;23;20159;-86
2024/04/05 07:29:04;;;;;;;1.93;1.33;;;;;;;;;;6045480;23;20463;-86
2024/04/05 07:35:44;;;;;;;3.83;1.10;;;;;;;;;;6076202;23;20159;-86
2024/04/05 07:39:08;;;;;;;2.67;1.20;;;;;;;;;;6074863;23;20183;-85
2024/04/05 07:42:12;;;;;;;2.13;1.30;;;;;;;;;;6110541;23;20151;-86
2024/04/05 07:45:19;;;;;;;4.50;1.30;;;;;;;;;;6110421;23;20606;-86
2024/04/05 07:48:24;;;;;;;5.90;2.23;;;;;;;;;;6110428;23;20159;-87
2024/04/05 07:51:28;;;;;;;3.33;1.10;;;;;;;;;;6101990;23;20190;-86
2024/04/05 07:54:32;;;;;;;2.93;1.37;;;;;;;;;;6111382;23;20459;-87
2024/04/05 07:57:37;;;;;;;3.40;1.30;;;;;;;;;;6077025;23;20158;-87
2024/04/05 08:00:41;;;;;;;2.07;1.17;;;;;;;;;;6069942;23;20199;-87
2024/04/05 08:03:47;;;;;;;2.83;1.50;;;;;;;;;;6094450;23;20151;-87
2024/04/05 08:06:53;;;;;;;2.13;0.90;;;;;;;;;;6093324;23;20155;-87
2024/04/05 08:09:57;;;;;;;2.47;0.90;;;;;;;;;;6106270;23;20191;-87
2024/04/05 08:13:01;;;;;;;2.87;1.17;;;;;;;;;;6075930;23;20182;-86
2024/04/05 08:16:06;;;;;;;2.73;1.03;;;;;;;;;;6092659;23;20159;-87
2024/04/05 08:19:10;;;;;;;7.07;1.20;;;;;;;;;;6109019;23;20163;-86
2024/04/05 08:22:14;;;;;;;3.17;1.10;;;;;;;;;;6110182;23;20155;-87
2024/04/05 08:25:19;;;;;;;2.03;0.80;;;;;;;;;;6108830;23;20159;-86
2024/04/05 08:28:23;;;;;;;2.80;1.07;;;;;;;;;;6109551;23;20609;-86
2024/04/05 08:31:28;;;;;;;3.83;2.03;;;;;;;;;;6082521;23;20661;-87
2024/04/05 08:34:33;;;;;;;2.00;1.70;;;;;;;;;;6108972;23;20179;-87
2024/04/05 08:37:37;;;;;;;3.97;1.00;;;;;;;;;;6109610;23;20159;-86
2024/04/05 08:40:41;;;;;;;2.43;0.90;;;;;;;;;;6114838;23;20201;-86
2024/04/05 08:43:46;;;;;;;1.40;0.80;;;;;;;;;;6104499;23;20155;-86
2024/04/05 08:46:51;;;;;;;3.93;0.80;;;;;;;;;;6141502;23;20160;-85
2024/04/05 08:49:59;;;;;;;3.73;0.90;;;;;;;;;;6118937;23;20187;-87
2024/04/05 08:53:04;;;;;;;3.83;0.77;;;;;;;;;;6104615;23;20618;-86
2024/04/05 08:56:10;;;;;;;3.23;1.10;;;;;;;;;;6122085;23;20165;-87
2024/04/05 08:59:18;;;;;;;2.80;0.70;;;;;;;;;;6121778;23;20152;-87
2024/04/05 09:02:26;;;;;;;2.40;0.80;;;;;;;;;;6122833;23;20460;-89
2024/04/05 09:05:30;;;;;;;2.77;1.33;;;;;;;;;;6121382;23;20161;-89
2024/04/05 09:08:43;;;;;;;3.42;0.80;;;;;;;;;;6121847;23;20598;-89
2024/04/05 09:11:47;;;;;;;2.85;1.00;;;;;;;;;;6105602;23;20162;-87
2024/04/05 09:15:19;;;;;;;4.07;1.10;;;;;;;;;;6122205;23;20154;-88
2024/04/05 09:18:30;;;;;;;4.70;0.80;;;;;;;;;;6089215;23;20164;-87
2024/04/05 09:21:42;;;;;;;1.48;0.82;;;;;;;;;;6104980;23;20160;-88
2024/04/05 09:24:47;;;;;;;1.90;0.70;;;;;;;;;;6104608;23;20639;-89
2024/04/05 09:27:51;;;;;;;3.17;1.17;;;;;;;;;;6105029;23;20163;-89
2024/04/05 09:30:59;;;;;;;5.35;0.88;;;;;;;;;;6113991;23;20190;-89
2024/04/05 09:34:14;;;;;;;1.55;0.70;;;;;;;;;;6105452;23;20156;-89
2024/04/05 09:37:19;;;;;;;2.70;1.10;;;;;;;;;;6104913;23;20160;-89
2024/04/05 09:40:24;;;;;;;5.78;0.80;;;;;;;;;;6082456;23;20195;-89
2024/04/05 09:43:29;;;;;;;3.10;1.08;;;;;;;;;;6138839;23;20182;-88
2024/04/05 09:46:34;;;;;;;2.72;0.65;;;;;;;;;;6120689;23;20163;-87
2024/04/05 09:49:38;;;;;;;2.35;0.90;;;;;;;;;;6118617;23;20194;-87
2024/04/05 09:52:46;;;;;;;4.47;1.02;;;;;;;;;;6138404;23;20156;-87
2024/04/05 09:55:54;;;;;;;1.70;0.73;;;;;;;;;;6103952;23;20161;-87
2024/04/05 09:58:58;;;;;;;1.23;0.70;;;;;;;;;;6121256;23;20153;-87
2024/04/05 10:02:04;;;;;;;1.88;1.00;;;;;;;;;;6103511;23;20158;-87
2024/04/05 10:05:12;;;;;;;2.85;0.90;;;;;;;;;;6138480;23;20151;-88
2024/04/05 10:08:17;;;;;;;3.35;0.80;;;;;;;;;;6120218;23;20478;-89
2024/04/05 10:11:25;;;;;;;3.42;0.93;;;;;;;;;;6111467;23;20198;-88
2024/04/05 10:14:29;;;;;;;3.28;0.93;;;;;;;;;;6137705;23;20156;-87
2024/04/05 10:17:33;;;;;;;3.15;1.15;;;;;;;;;;6137232;23;20158;-87
2024/04/05 10:20:38;;;;;;;2.00;0.90;;;;;;;;;;6131133;23;20193;-86
2024/04/05 10:23:44;;;;;;;2.00;0.80;;;;;;;;;;6120984;23;20177;-88
2024/04/05 10:26:51;;;;;;;3.00;0.98;;;;;;;;;;6106282;23;20159;-89
2024/04/05 10:30:03;;;;;;;1.90;0.90;;;;;;;;;;6101808;23;20190;-88
2024/04/05 10:33:18;;;;;;;2.55;1.02;;;;;;;;;;6105992;23;20154;-91
2024/04/05 10:36:23;;;;;;;1.55;0.70;;;;;;;;;;6087509;23;20158;-91
2024/04/05 11:00:19;;;;;;;4.22;1.10;;;;;;;;;;6137707;23;20194;-87
2024/04/05 11:03:23;;;;;;;5.30;1.08;;;;;;;;;;6120681;23;20182;-86
2024/04/05 11:07:00;;;;;;;2.30;0.75;;;;;;;;;;6104788;23;20154;-86
2024/04/05 11:10:18;;;;;;;1.52;0.82;;;;;;;;;;6102297;23;20192;-86
2024/04/05 11:13:25;;;;;;;1.75;0.90;;;;;;;;;;6088563;23;20155;-87
2024/04/05 11:16:37;;;;;;;3.00;0.90;;;;;;;;;;6105687;23;20473;-86
2024/04/05 11:19:41;;;;;;;2.63;0.70;;;;;;;;;;6120694;23;20198;-87
2024/04/05 11:22:45;;;;;;;1.60;0.65;;;;;;;;;;6121979;23;20162;-87
2024/04/05 11:25:53;;;;;;;1.92;0.82;;;;;;;;;;6105797;23;20157;-86
2024/04/05 11:29:01;;;;;;;2.15;0.80;;;;;;;;;;6108117;23;20158;-86
2024/04/05 11:32:06;;;;;;;4.22;0.73;;;;;;;;;;6123882;23;20158;-86
2024/04/05 11:35:13;;;;;;;2.67;1.10;;;;;;;;;;6106710;23;20151;-86
2024/04/05 11:38:17;;;;;;;2.33;0.93;;;;;;;;;;6122675;23;20158;-86
2024/04/05 11:41:24;;;;;;;1.98;0.85;;;;;;;;;;6132209;23;20197;-86
2024/04/05 11:44:28;;;;;;;3.28;0.60;;;;;;;;;;6122452;23;20182;-87
2024/04/05 11:47:33;;;;;;;1.40;0.68;;;;;;;;;;6122812;23;20155;-86
2024/04/05 11:50:38;;;;;;;2.15;0.80;;;;;;;;;;6104630;23;20190;-86
2024/04/05 11:53:42;;;;;;;4.57;0.70;;;;;;;;;;6143339;23;20154;-86
2024/04/05 11:56:47;;;;;;;1.48;0.70;;;;;;;;;;6126655;23;20158;-86
2024/04/05 11:59:51;;;;;;;2.83;0.93;;;;;;;;;;6090951;23;20193;-86
2024/04/05 12:02:55;;;;;;;1.73;0.80;;;;;;;;;;6137619;23;20151;-85
2024/04/05 12:06:00;;;;;;;2.15;0.90;;;;;;;;;;6136213;23;20159;-85
2024/04/05 12:09:08;;;;;;;2.22;0.80;;;;;;;;;;6136479;23;20158;-85
2024/04/05 12:12:12;;;;;;;2.03;0.80;;;;;;;;;;6129210;23;20151;-83
2024/04/05 12:15:17;;;;;;;1.60;0.60;;;;;;;;;;6130130;23;20154;-83
2024/04/05 12:18:21;;;;;;;3.13;0.70;;;;;;;;;;6150160;23;20158;-85
2024/04/05 12:21:25;;;;;;;2.17;0.70;;;;;;;;;;6109802;23;20785;-83
2024/04/05 12:24:30;;;;;;;1.45;0.70;;;;;;;;;;6153130;23;20186;-83
2024/04/05 12:27:34;;;;;;;2.92;0.70;;;;;;;;;;6113860;23;20464;-84
2024/04/05 12:30:38;;;;;;;1.15;0.60;;;;;;;;;;6135492;23;20193;-84
2024/04/05 12:33:43;;;;;;;1.38;0.50;;;;;;;;;;6141958;23;20601;-84
2024/04/05 12:36:47;;;;;;;4.82;0.63;;;;;;;;;;6142776;23;20158;-82
2024/04/05 12:39:54;;;;;;;1.30;0.60;;;;;;;;;;6141065;23;20206;-83
2024/04/05 12:42:58;;;;;;;1.90;0.82;;;;;;;;;;6142845;23;20162;-83
2024/04/05 12:46:05;;;;;;;4.43;1.10;;;;;;;;;;6107181;23;20151;-86
2024/04/05 12:49:09;;;;;;;1.77;0.70;;;;;;;;;;6123272;23;20155;-86
2024/04/05 12:52:17;;;;;;;2.83;0.70;;;;;;;;;;6140520;23;20163;-88
2024/04/05 12:55:21;;;;;;;4.38;0.90;;;;;;;;;;6140777;23;20479;-86
2024/04/05 12:58:32;;;;;;;2.00;0.68;;;;;;;;;;6121864;23;20158;-87
2024/04/05 13:01:36;;;;;;;1.73;0.65;;;;;;;;;;6115445;23;20194;-85
2024/04/05 13:04:41;;;;;;;2.08;0.80;;;;;;;;;;6125138;23;20182;-85
2024/04/05 13:07:45;;;;;;;2.17;0.60;;;;;;;;;;6109391;23;20460;-85
2024/04/05 13:10:56;;;;;;;2.10;0.68;;;;;;;;;;6137219;23;20191;-85
2024/04/05 13:14:00;;;;;;;1.27;0.63;;;;;;;;;;6144588;23;20154;-86
2024/04/05 13:17:04;;;;;;;2.25;0.70;;;;;;;;;;6132297;23;20155;-84
2024/04/05 13:20:09;;;;;;;1.05;0.57;;;;;;;;;;6149958;23;20194;-84
2024/04/05 13:23:14;;;;;;;2.17;0.60;;;;;;;;;;6137829;23;20151;-84
2024/04/05 13:26:20;;;;;;;2.05;0.70;;;;;;;;;;6108670;23;20158;-85
2024/04/05 13:29:26;;;;;;;0.93;0.50;;;;;;;;;;6128333;23;20151;-82
2024/04/05 13:32:30;;;;;;;2.72;0.70;;;;;;;;;;6137763;23;20159;-84
2024/04/05 13:35:35;;;;;;;2.88;0.80;;;;;;;;;;6121405;23;20613;-82
2024/04/05 13:38:41;;;;;;;1.00;0.60;;;;;;;;;;6119514;23;20159;-82
2024/04/05 13:41:45;;;;;;;1.00;0.70;;;;;;;;;;6138343;23;20201;-84
2024/04/05 13:44:53;;;;;;;1.65;0.60;;;;;;;;;;6140366;23;20503;-84
2024/04/05 13:47:57;;;;;;;1.17;0.60;;;;;;;;;;6122899;23;20155;-85
2024/04/05 13:51:04;;;;;;;1.17;0.70;;;;;;;;;;6116367;23;20193;-83
2024/04/05 13:54:08;;;;;;;1.70;0.60;;;;;;;;;;6141211;23;20156;-86
2024/04/05 13:57:12;;;;;;;1.25;0.50;;;;;;;;;;6123456;23;20154;-85
2024/04/05 14:00:17;;;;;;;1.40;0.70;;;;;;;;;;6138064;23;20198;-84
2024/04/05 14:03:24;;;;;;;2.42;0.70;;;;;;;;;;6124970;23;20213;-86
2024/04/05 14:06:30;;;;;;;2.28;0.70;;;;;;;;;;6144182;23;20158;-84
2024/04/05 14:09:36;;;;;;;2.42;0.68;;;;;;;;;;6141225;23;20157;-86
2024/04/05 14:12:41;;;;;;;1.58;0.50;;;;;;;;;;6123820;23;20159;-86
2024/04/05 14:15:58;;;;;;;0.88;0.50;;;;;;;;;;6124726;23;20467;-86
2024/04/05 14:19:02;;;;;;;1.02;0.65;;;;;;;;;;6123541;23;20158;-85
2024/04/05 14:22:07;;;;;;;4.00;0.88;;;;;;;;;;6126961;23;20164;-86
2024/04/05 14:25:11;;;;;;;1.38;0.50;;;;;;;;;;6125177;23;20178;-84
2024/04/05 14:28:16;;;;;;;2.05;0.82;;;;;;;;;;6124559;23;20157;-83
2024/04/05 14:31:20;;;;;;;1.20;0.68;;;;;;;;;;6132543;23;20192;-83
2024/04/05 14:34:24;;;;;;;1.83;0.73;;;;;;;;;;6121805;23;20598;-83
2024/04/05 14:37:28;;;;;;;1.20;0.57;;;;;;;;;;6123023;23;20160;-83
2024/04/05 14:40:32;;;;;;;1.40;0.70;;;;;;;;;;6136008;23;20203;-83
2024/04/05 14:43:41;;;;;;;3.58;0.90;;;;;;;;;;6142953;23;20162;-84
2024/04/05 14:46:45;;;;;;;1.80;0.63;;;;;;;;;;6143966;23;20160;-84
2024/04/05 14:49:49;;;;;;;2.05;0.93;;;;;;;;;;6124069;23;20193;-83
2024/04/05 14:52:56;;;;;;;1.35;0.52;;;;;;;;;;6154296;23;20153;-83
2024/04/05 14:56:18;;;;;;;2.95;0.73;;;;;;;;;;6130769;23;20187;-86
2024/04/05 14:59:24;;;;;;;2.63;0.77;;;;;;;;;;6140720;23;20462;-83
2024/04/05 15:02:28;;;;;;;1.13;0.60;;;;;;;;;;6157631;23;20156;-82
2024/04/05 15:05:33;;;;;;;3.13;0.77;;;;;;;;;;6139580;23;20165;-86
2024/04/05 15:08:38;;;;;;;4.33;0.70;;;;;;;;;;6141891;23;20256;-84
2024/04/05 15:11:42;;;;;;;1.77;0.90;;;;;;;;;;6149323;23;20186;-85
2024/04/05 15:14:46;;;;;;;2.97;0.77;;;;;;;;;;6124524;23;20151;-85
2024/04/05 15:17:51;;;;;;;1.33;0.90;;;;;;;;;;6157519;23;20161;-85
2024/04/05 15:20:55;;;;;;;2.87;0.60;;;;;;;;;;6132735;23;20197;-84
2024/04/05 15:23:59;;;;;;;3.77;0.83;;;;;;;;;;6135352;23;20155;-83
2024/04/05 15:27:06;;;;;;;1.57;0.50;;;;;;;;;;6120305;23;20151;-83
2024/04/05 15:30:10;;;;;;;2.60;0.60;;;;;;;;;;6131554;23;20192;-84
2024/04/05 15:33:14;;;;;;;2.20;0.50;;;;;;;;;;6148283;23;20161;-83
2024/04/05 15:36:19;;;;;;;0.80;0.70;;;;;;;;;;6131156;23;20153;-84
2024/04/05 15:39:25;;;;;;;7.37;0.87;;;;;;;;;;6116209;23;20151;-84
2024/04/05 15:46:36;;;;;;;3.53;1.37;;;;;;;;;;6109168;23;20190;-84
2024/04/05 15:50:38;;;;;;;1.00;0.70;;;;;;;;;;6083080;23;20195;-89
2024/04/05 15:54:39;;;;;;;5.97;0.63;;;;;;;;;;6091453;23;20154;-90
2024/04/05 15:57:43;;;;;;;0.60;0.50;;;;;;;;;;6095096;23;20157;-89
2024/04/05 16:00:48;;;;;;;2.70;0.80;;;;;;;;;;6085933;23;20188;-89
2024/04/05 16:03:55;;;;;;;1.73;0.77;;;;;;;;;;6111637;23;20158;-89
2024/04/05 16:06:59;;;;;;;1.30;0.80;;;;;;;;;;6095072;23;20161;-89
2024/04/05 16:10:06;;;;;;;8.87;1.57;;;;;;;;;;6058660;23;20197;-89
2024/04/05 16:13:10;;;;;;;2.27;0.83;;;;;;;;;;6093472;23;20157;-90
2024/04/05 16:16:14;;;;;;;6.30;1.50;;;;;;;;;;6061805;23;20156;-89
2024/04/05 16:19:20;;;;;;;6.83;1.10;;;;;;;;;;6077131;23;20159;-91
2024/04/05 16:22:26;;;;;;;2.63;0.83;;;;;;;;;;6077817;23;20160;-89
2024/04/05 16:25:31;;;;;;;1.43;0.80;;;;;;;;;;6092320;23;20187;-88
2024/04/05 16:28:43;;;;;;;3.83;1.00;;;;;;;;;;6059661;23;20160;-90
2024/04/05 16:31:48;;;;;;;1.63;1.00;;;;;;;;;;6079002;23;20153;-88
2024/04/05 16:34:53;;;;;;;3.20;1.10;;;;;;;;;;6097317;23;20605;-86
2024/04/05 16:37:57;;;;;;;4.00;1.10;;;;;;;;;;6091726;23;20155;-87
2024/04/05 16:41:41;;;;;;;3.30;0.93;;;;;;;;;;6134028;23;20671;-89
2024/04/05 16:46:32;;;;;;;1.30;0.90;;;;;;;;;;6151481;23;20201;-89
2024/04/05 16:51:33;;;;;;;2.67;0.70;;;;;;;;;;6156764;23;20189;-89
2024/04/05 17:06:42;;;;;;;3.63;0.70;;;;;;;;;;6023590;23;20204;-89
2024/04/05 17:11:47;;;;;;;2.10;1.00;;;;;;;;;;6009824;23;20553;-89
2024/04/05 17:21:37;;;;;;;2.50;0.70;;;;;;;;;;6011466;23;20506;-89
2024/04/05 17:26:23;;;;;;;2.53;1.00;;;;;;;;;;5955035;24;20201;-90
2024/04/05 17:34:23;;;;;;;2.07;0.80;;;;;;;;;;5993821;23;20176;-84
2024/04/05 17:37:50;;;;;;;2.77;1.40;;;;;;;;;;6077581;23;20496;-86
2024/04/05 17:41:21;;;;;;;2.93;1.30;;;;;;;;;;6060269;23;20206;-88
2024/04/05 17:44:51;;;;;;;1.80;0.73;;;;;;;;;;6103268;23;20169;-87
2024/04/05 17:47:57;;;;;;;4.23;1.00;;;;;;;;;;6086887;23;20149;-85
2024/04/05 17:51:02;;;;;;;5.37;1.13;;;;;;;;;;6113540;23;20193;-86
2024/04/05 17:54:06;;;;;;;2.07;0.90;;;;;;;;;;6102976;23;20159;-89
2024/04/05 17:57:11;;;;;;;2.83;0.90;;;;;;;;;;6136882;23;20455;-88
2024/04/05 18:00:15;;;;;;;1.43;0.60;;;;;;;;;;6100358;23;20186;-91
2024/04/05 18:03:22;;;;;;;1.80;1.50;;;;;;;;;;6118578;23;20158;-91
2024/04/05 18:06:26;;;;;;;1.40;1.10;;;;;;;;;;6102049;23;20644;-91
2024/04/05 18:09:30;;;;;;;2.03;1.00;;;;;;;;;;6118855;23;20158;-91
2024/04/05 18:12:36;;;;;;;6.70;1.13;;;;;;;;;;6118853;23;20158;-89
2024/04/05 18:15:42;;;;;;;3.03;0.87;;;;;;;;;;6102121;23;20158;-91
2024/04/05 18:18:46;;;;;;;3.07;1.10;;;;;;;;;;6118287;23;20158;-90
2024/04/05 18:21:50;;;;;;;1.27;0.70;;;;;;;;;;6093976;23;20197;-91
2024/04/05 18:24:54;;;;;;;1.40;0.80;;;;;;;;;;6102155;23;20158;-91
2024/04/05 18:27:58;;;;;;;2.00;0.87;;;;;;;;;;6102585;23;20158;-90
2024/04/05 18:31:03;;;;;;;3.23;1.33;;;;;;;;;;6113725;23;20292;-91
2024/04/05 18:34:07;;;;;;;2.90;0.90;;;;;;;;;;6135666;23;20158;-90
2024/04/05 18:37:12;;;;;;;1.53;0.97;;;;;;;;;;6118596;23;20154;-90
2024/04/05 18:40:18;;;;;;;2.03;1.10;;;;;;;;;;6105501;23;20663;-90
2024/04/05 18:43:22;;;;;;;2.23;1.00;;;;;;;;;;6148379;23;20153;-90
2024/04/05 18:46:40;;;;;;;1.43;0.80;;;;;;;;;;6148481;23;20185;-90
2024/04/05 18:49:46;;;;;;;2.03;1.10;;;;;;;;;;6149290;23;20158;-83
2024/04/05 18:52:54;;;;;;;3.50;2.07;;;;;;;;;;6169190;23;20162;-83
2024/04/05 19:00:57;;;;;;;2.57;1.40;;;;;;;;;;6166967;23;20185;-85
2024/04/05 19:50:29;;;;;;;5.07;1.03;;;;;;;;;;5939996;24;20488;-89
2024/04/05 22:42:12;;;;;;;2.90;1.40;;;;;;;;;;6131010;22;20216;-88
2024/04/05 22:45:23;;;;;;;2.03;1.40;;;;;;;;;;6146595;23;20461;-86
